sensor_id;sensor_type;location;lat;lon;timestamp;temperature;humidity
71367;DHT22;60030;52.274;8.040;2023-02-28T00:00:10;4.10;99.90
71367;DHT22;60030;52.274;8.040;2023-02-28T00:02:38;4.00;99.90
71367;DHT22;60030;52.274;8.040;2023-02-28T00:05:07;4.00;99.90
71367;DHT22;60030;52.274;8.040;2023-02-28T00:07:34;4.00;99.90
71367;DHT22;60030;52.274;8.040;2023-02-28T00:10:02;4.00;99.90
71367;DHT22;60030;52.274;8.040;2023-02-28T00:12:29;4.00;99.90
71367;DHT22;60030;52.274;8.040;2023-02-28T00:14:58;4.00;99.90
71367;DHT22;60030;52.274;8.040;2023-02-28T00:17:25;3.90;99.90
71367;DHT22;60030;52.274;8.040;2023-02-28T00:19:52;4.00;99.90
71367;DHT22;60030;52.274;8.040;2023-02-28T00:22:20;3.90;99.90
71367;DHT22;60030;52.274;8.040;2023-02-28T00:24:47;3.90;99.90
71367;DHT22;60030;52.274;8.040;2023-02-28T00:27:15;3.80;99.90
71367;DHT22;60030;52.274;8.040;2023-02-28T00:29:42;3.70;99.90
71367;DHT22;60030;52.274;8.040;2023-02-28T00:32:11;3.70;99.90
71367;DHT22;60030;52.274;8.040;2023-02-28T00:34:39;3.70;99.90
71367;DHT22;60030;52.274;8.040;2023-02-28T00:37:09;3.60;99.90
71367;DHT22;60030;52.274;8.040;2023-02-28T00:39:38;3.60;99.90
71367;DHT22;60030;52.274;8.040;2023-02-28T00:42:06;3.60;99.90
71367;DHT22;60030;52.274;8.040;2023-02-28T00:44:34;3.50;99.90
71367;DHT22;60030;52.274;8.040;2023-02-28T00:47:01;3.50;99.90
71367;DHT22;60030;52.274;8.040;2023-02-28T00:49:29;3.50;99.90
71367;DHT22;60030;52.274;8.040;2023-02-28T00:51:56;3.50;99.90
71367;DHT22;60030;52.274;8.040;2023-02-28T00:54:26;3.10;99.90
71367;DHT22;60030;52.274;8.040;2023-02-28T00:56:53;3.00;99.90
71367;DHT22;60030;52.274;8.040;2023-02-28T00:59:20;3.10;99.90
71367;DHT22;60030;52.274;8.040;2023-02-28T01:01:47;3.10;99.90
71367;DHT22;60030;52.274;8.040;2023-02-28T01:04:14;3.20;99.90
71367;DHT22;60030;52.274;8.040;2023-02-28T01:06:43;3.20;99.90
71367;DHT22;60030;52.274;8.040;2023-02-28T01:09:11;3.20;99.90
71367;DHT22;60030;52.274;8.040;2023-02-28T01:11:38;3.30;99.90
71367;DHT22;60030;52.274;8.040;2023-02-28T01:14:08;3.30;99.90
71367;DHT22;60030;52.274;8.040;2023-02-28T01:16:36;3.30;99.90
71367;DHT22;60030;52.274;8.040;2023-02-28T01:19:03;3.30;99.90
71367;DHT22;60030;52.274;8.040;2023-02-28T01:21:31;3.30;99.90
71367;DHT22;60030;52.274;8.040;2023-02-28T01:23:59;3.30;99.90
71367;DHT22;60030;52.274;8.040;2023-02-28T01:26:26;3.30;99.90
71367;DHT22;60030;52.274;8.040;2023-02-28T01:28:53;3.30;99.90
71367;DHT22;60030;52.274;8.040;2023-02-28T01:31:21;3.30;99.90
71367;DHT22;60030;52.274;8.040;2023-02-28T01:33:49;3.30;99.90
71367;DHT22;60030;52.274;8.040;2023-02-28T01:36:18;3.40;99.90
71367;DHT22;60030;52.274;8.040;2023-02-28T01:38:45;3.40;99.90
71367;DHT22;60030;52.274;8.040;2023-02-28T01:41:17;3.40;99.90
71367;DHT22;60030;52.274;8.040;2023-02-28T01:43:59;3.50;99.90
71367;DHT22;60030;52.274;8.040;2023-02-28T01:46:29;3.40;99.90
71367;DHT22;60030;52.274;8.040;2023-02-28T01:49:01;3.30;99.90
71367;DHT22;60030;52.274;8.040;2023-02-28T01:51:34;3.30;99.90
71367;DHT22;60030;52.274;8.040;2023-02-28T01:54:07;3.40;99.90
71367;DHT22;60030;52.274;8.040;2023-02-28T01:56:44;3.40;99.90
71367;DHT22;60030;52.274;8.040;2023-02-28T01:59:14;3.30;99.90
71367;DHT22;60030;52.274;8.040;2023-02-28T02:01:45;3.30;99.90
71367;DHT22;60030;52.274;8.040;2023-02-28T02:04:13;3.20;99.90
71367;DHT22;60030;52.274;8.040;2023-02-28T02:06:44;3.20;99.90
71367;DHT22;60030;52.274;8.040;2023-02-28T02:09:12;3.20;99.90
71367;DHT22;60030;52.274;8.040;2023-02-28T02:11:42;3.20;99.90
71367;DHT22;60030;52.274;8.040;2023-02-28T02:17:18;3.20;99.90
71367;DHT22;60030;52.274;8.040;2023-02-28T02:20:16;3.20;99.90
71367;DHT22;60030;52.274;8.040;2023-02-28T02:23:13;3.20;99.90
71367;DHT22;60030;52.274;8.040;2023-02-28T02:25:51;3.20;99.90
71367;DHT22;60030;52.274;8.040;2023-02-28T02:28:46;3.10;99.90
71367;DHT22;60030;52.274;8.040;2023-02-28T02:34:32;3.00;99.90
71367;DHT22;60030;52.274;8.040;2023-02-28T02:37:13;2.80;99.90
71367;DHT22;60030;52.274;8.040;2023-02-28T02:39:48;2.80;99.90
71367;DHT22;60030;52.274;8.040;2023-02-28T02:42:21;2.90;99.90
71367;DHT22;60030;52.274;8.040;2023-02-28T02:44:54;2.90;99.90
71367;DHT22;60030;52.274;8.040;2023-02-28T02:47:25;2.90;99.90
71367;DHT22;60030;52.274;8.040;2023-02-28T02:49:57;2.80;99.90
71367;DHT22;60030;52.274;8.040;2023-02-28T02:52:33;2.80;99.90
71367;DHT22;60030;52.274;8.040;2023-02-28T02:55:05;2.70;99.90
71367;DHT22;60030;52.274;8.040;2023-02-28T02:57:36;2.70;99.90
71367;DHT22;60030;52.274;8.040;2023-02-28T03:00:07;2.80;99.90
71367;DHT22;60030;52.274;8.040;2023-02-28T03:02:36;2.80;99.90
71367;DHT22;60030;52.274;8.040;2023-02-28T03:05:12;2.90;99.90
71367;DHT22;60030;52.274;8.040;2023-02-28T03:07:41;2.80;99.90
71367;DHT22;60030;52.274;8.040;2023-02-28T03:10:30;2.80;99.90
71367;DHT22;60030;52.274;8.040;2023-02-28T03:13:08;2.80;99.90
71367;DHT22;60030;52.274;8.040;2023-02-28T03:15:47;2.70;99.90
71367;DHT22;60030;52.274;8.040;2023-02-28T03:18:24;2.80;99.90
71367;DHT22;60030;52.274;8.040;2023-02-28T03:21:06;2.80;99.90
71367;DHT22;60030;52.274;8.040;2023-02-28T03:23:42;2.80;99.90
71367;DHT22;60030;52.274;8.040;2023-02-28T03:26:16;2.80;99.90
71367;DHT22;60030;52.274;8.040;2023-02-28T03:28:52;2.80;99.90
71367;DHT22;60030;52.274;8.040;2023-02-28T03:31:24;2.80;99.90
71367;DHT22;60030;52.274;8.040;2023-02-28T03:33:58;2.70;99.90
71367;DHT22;60030;52.274;8.040;2023-02-28T03:36:30;2.60;99.90
71367;DHT22;60030;52.274;8.040;2023-02-28T03:39:02;2.60;99.90
71367;DHT22;60030;52.274;8.040;2023-02-28T03:41:35;2.60;99.90
71367;DHT22;60030;52.274;8.040;2023-02-28T03:44:09;2.70;99.90
71367;DHT22;60030;52.274;8.040;2023-02-28T03:46:44;2.70;99.90
71367;DHT22;60030;52.274;8.040;2023-02-28T03:49:16;2.70;99.90
71367;DHT22;60030;52.274;8.040;2023-02-28T03:51:46;2.60;99.90
71367;DHT22;60030;52.274;8.040;2023-02-28T03:54:16;2.70;99.90
71367;DHT22;60030;52.274;8.040;2023-02-28T03:56:50;2.60;99.90
71367;DHT22;60030;52.274;8.040;2023-02-28T03:59:23;2.50;99.90
71367;DHT22;60030;52.274;8.040;2023-02-28T04:01:52;2.50;99.90
71367;DHT22;60030;52.274;8.040;2023-02-28T04:04:21;2.50;99.90
71367;DHT22;60030;52.274;8.040;2023-02-28T04:06:51;2.50;99.90
71367;DHT22;60030;52.274;8.040;2023-02-28T04:09:19;2.50;99.90
71367;DHT22;60030;52.274;8.040;2023-02-28T04:11:50;2.40;99.90
71367;DHT22;60030;52.274;8.040;2023-02-28T04:14:18;2.40;99.90
71367;DHT22;60030;52.274;8.040;2023-02-28T04:16:45;2.40;99.90
71367;DHT22;60030;52.274;8.040;2023-02-28T04:19:14;2.30;99.90
71367;DHT22;60030;52.274;8.040;2023-02-28T04:21:43;2.30;99.90
71367;DHT22;60030;52.274;8.040;2023-02-28T04:24:13;2.30;99.90
71367;DHT22;60030;52.274;8.040;2023-02-28T04:26:42;2.20;99.90
71367;DHT22;60030;52.274;8.040;2023-02-28T04:29:11;2.20;99.90
71367;DHT22;60030;52.274;8.040;2023-02-28T04:31:39;2.20;99.90
71367;DHT22;60030;52.274;8.040;2023-02-28T04:34:06;2.30;99.90
71367;DHT22;60030;52.274;8.040;2023-02-28T04:36:33;2.20;99.90
71367;DHT22;60030;52.274;8.040;2023-02-28T04:39:00;2.30;99.90
71367;DHT22;60030;52.274;8.040;2023-02-28T04:41:29;2.20;99.90
71367;DHT22;60030;52.274;8.040;2023-02-28T04:43:57;2.10;99.90
71367;DHT22;60030;52.274;8.040;2023-02-28T04:46:24;2.20;99.90
71367;DHT22;60030;52.274;8.040;2023-02-28T04:48:51;2.20;99.90
71367;DHT22;60030;52.274;8.040;2023-02-28T04:51:19;2.10;99.90
71367;DHT22;60030;52.274;8.040;2023-02-28T04:53:46;2.10;99.90
71367;DHT22;60030;52.274;8.040;2023-02-28T04:56:16;2.10;99.90
71367;DHT22;60030;52.274;8.040;2023-02-28T04:58:44;2.10;99.90
71367;DHT22;60030;52.274;8.040;2023-02-28T05:01:21;2.10;99.90
71367;DHT22;60030;52.274;8.040;2023-02-28T05:03:49;2.10;99.90
71367;DHT22;60030;52.274;8.040;2023-02-28T05:06:16;2.10;99.90
71367;DHT22;60030;52.274;8.040;2023-02-28T05:08:43;2.00;99.90
71367;DHT22;60030;52.274;8.040;2023-02-28T05:11:17;2.00;99.90
71367;DHT22;60030;52.274;8.040;2023-02-28T05:13:47;2.00;99.90
71367;DHT22;60030;52.274;8.040;2023-02-28T05:16:14;1.90;99.90
71367;DHT22;60030;52.274;8.040;2023-02-28T05:18:41;1.90;99.90
71367;DHT22;60030;52.274;8.040;2023-02-28T05:21:22;1.90;99.90
71367;DHT22;60030;52.274;8.040;2023-02-28T05:23:50;2.00;99.90
71367;DHT22;60030;52.274;8.040;2023-02-28T05:26:17;2.00;99.90
71367;DHT22;60030;52.274;8.040;2023-02-28T05:28:46;2.00;99.90
71367;DHT22;60030;52.274;8.040;2023-02-28T05:31:13;2.10;99.90
71367;DHT22;60030;52.274;8.040;2023-02-28T05:33:41;2.10;99.90
71367;DHT22;60030;52.274;8.040;2023-02-28T05:36:08;2.10;99.90
71367;DHT22;60030;52.274;8.040;2023-02-28T05:38:35;2.20;99.90
71367;DHT22;60030;52.274;8.040;2023-02-28T05:41:06;2.20;99.90
71367;DHT22;60030;52.274;8.040;2023-02-28T05:43:34;2.20;99.90
71367;DHT22;60030;52.274;8.040;2023-02-28T05:46:04;2.30;99.90
71367;DHT22;60030;52.274;8.040;2023-02-28T05:48:32;2.20;99.90
71367;DHT22;60030;52.274;8.040;2023-02-28T05:50:59;2.20;99.90
71367;DHT22;60030;52.274;8.040;2023-02-28T05:53:26;2.20;99.90
71367;DHT22;60030;52.274;8.040;2023-02-28T05:55:53;2.20;99.90
71367;DHT22;60030;52.274;8.040;2023-02-28T05:58:20;2.20;99.90
71367;DHT22;60030;52.274;8.040;2023-02-28T06:00:47;2.20;99.90
71367;DHT22;60030;52.274;8.040;2023-02-28T06:03:16;2.20;99.90
71367;DHT22;60030;52.274;8.040;2023-02-28T06:05:43;2.10;99.90
71367;DHT22;60030;52.274;8.040;2023-02-28T06:08:10;2.00;99.90
71367;DHT22;60030;52.274;8.040;2023-02-28T06:10:37;2.10;99.90
71367;DHT22;60030;52.274;8.040;2023-02-28T06:13:04;2.10;99.90
71367;DHT22;60030;52.274;8.040;2023-02-28T06:15:32;2.10;99.90
71367;DHT22;60030;52.274;8.040;2023-02-28T06:17:59;2.10;99.90
71367;DHT22;60030;52.274;8.040;2023-02-28T06:20:27;2.10;99.90
71367;DHT22;60030;52.274;8.040;2023-02-28T06:22:55;2.10;99.90
71367;DHT22;60030;52.274;8.040;2023-02-28T06:25:24;2.10;99.90
71367;DHT22;60030;52.274;8.040;2023-02-28T06:27:51;1.90;99.90
71367;DHT22;60030;52.274;8.040;2023-02-28T06:30:18;1.90;99.90
71367;DHT22;60030;52.274;8.040;2023-02-28T06:32:49;1.90;99.90
71367;DHT22;60030;52.274;8.040;2023-02-28T06:35:16;1.70;99.90
71367;DHT22;60030;52.274;8.040;2023-02-28T06:37:45;1.70;99.90
71367;DHT22;60030;52.274;8.040;2023-02-28T06:40:13;1.70;99.90
71367;DHT22;60030;52.274;8.040;2023-02-28T06:42:41;1.80;99.90
71367;DHT22;60030;52.274;8.040;2023-02-28T06:45:09;1.80;99.90
71367;DHT22;60030;52.274;8.040;2023-02-28T06:47:37;1.90;99.90
71367;DHT22;60030;52.274;8.040;2023-02-28T06:50:05;2.00;99.90
71367;DHT22;60030;52.274;8.040;2023-02-28T06:52:32;2.00;99.90
71367;DHT22;60030;52.274;8.040;2023-02-28T06:55:04;2.00;99.90
71367;DHT22;60030;52.274;8.040;2023-02-28T06:57:33;2.10;99.90
71367;DHT22;60030;52.274;8.040;2023-02-28T07:00:01;2.00;99.90
71367;DHT22;60030;52.274;8.040;2023-02-28T07:02:33;2.20;99.90
71367;DHT22;60030;52.274;8.040;2023-02-28T07:05:00;2.10;99.90
71367;DHT22;60030;52.274;8.040;2023-02-28T07:07:27;2.20;99.90
71367;DHT22;60030;52.274;8.040;2023-02-28T07:09:55;2.20;99.90
71367;DHT22;60030;52.274;8.040;2023-02-28T07:12:23;2.10;99.90
71367;DHT22;60030;52.274;8.040;2023-02-28T07:14:50;2.20;99.90
71367;DHT22;60030;52.274;8.040;2023-02-28T07:17:17;2.30;99.90
71367;DHT22;60030;52.274;8.040;2023-02-28T07:19:44;2.40;99.90
71367;DHT22;60030;52.274;8.040;2023-02-28T07:22:11;2.40;99.90
71367;DHT22;60030;52.274;8.040;2023-02-28T07:24:38;2.40;99.90
71367;DHT22;60030;52.274;8.040;2023-02-28T07:27:05;2.50;99.90
71367;DHT22;60030;52.274;8.040;2023-02-28T07:29:34;2.40;99.90
71367;DHT22;60030;52.274;8.040;2023-02-28T07:32:01;2.50;99.90
71367;DHT22;60030;52.274;8.040;2023-02-28T07:34:28;2.50;99.90
71367;DHT22;60030;52.274;8.040;2023-02-28T07:36:55;2.50;99.90
71367;DHT22;60030;52.274;8.040;2023-02-28T07:39:22;2.50;99.90
71367;DHT22;60030;52.274;8.040;2023-02-28T07:41:49;2.50;99.90
71367;DHT22;60030;52.274;8.040;2023-02-28T07:44:16;2.50;99.90
71367;DHT22;60030;52.274;8.040;2023-02-28T07:46:45;2.60;99.90
71367;DHT22;60030;52.274;8.040;2023-02-28T07:49:12;2.60;99.90
71367;DHT22;60030;52.274;8.040;2023-02-28T07:51:39;2.60;99.90
71367;DHT22;60030;52.274;8.040;2023-02-28T07:54:06;2.60;99.90
71367;DHT22;60030;52.274;8.040;2023-02-28T07:56:33;2.70;99.90
71367;DHT22;60030;52.274;8.040;2023-02-28T07:59:00;2.70;99.90
71367;DHT22;60030;52.274;8.040;2023-02-28T08:01:28;2.70;99.90
71367;DHT22;60030;52.274;8.040;2023-02-28T08:03:56;2.80;99.90
71367;DHT22;60030;52.274;8.040;2023-02-28T08:06:24;2.80;99.90
71367;DHT22;60030;52.274;8.040;2023-02-28T08:08:53;2.90;99.90
71367;DHT22;60030;52.274;8.040;2023-02-28T08:11:21;3.00;99.90
71367;DHT22;60030;52.274;8.040;2023-02-28T08:13:48;3.00;99.90
71367;DHT22;60030;52.274;8.040;2023-02-28T08:16:16;3.00;99.90
71367;DHT22;60030;52.274;8.040;2023-02-28T08:18:48;3.10;99.90
71367;DHT22;60030;52.274;8.040;2023-02-28T08:21:17;3.10;99.90
71367;DHT22;60030;52.274;8.040;2023-02-28T08:23:46;3.20;99.90
71367;DHT22;60030;52.274;8.040;2023-02-28T08:26:14;3.20;99.90
71367;DHT22;60030;52.274;8.040;2023-02-28T08:28:41;3.20;99.90
71367;DHT22;60030;52.274;8.040;2023-02-28T08:31:09;3.20;99.90
71367;DHT22;60030;52.274;8.040;2023-02-28T08:33:37;3.30;99.90
71367;DHT22;60030;52.274;8.040;2023-02-28T08:36:06;3.30;99.90
71367;DHT22;60030;52.274;8.040;2023-02-28T08:38:35;3.40;99.90
71367;DHT22;60030;52.274;8.040;2023-02-28T08:41:04;3.50;99.90
71367;DHT22;60030;52.274;8.040;2023-02-28T08:43:33;3.60;99.90
71367;DHT22;60030;52.274;8.040;2023-02-28T08:46:00;3.60;99.90
71367;DHT22;60030;52.274;8.040;2023-02-28T08:48:29;3.70;99.90
71367;DHT22;60030;52.274;8.040;2023-02-28T08:50:57;3.70;99.90
71367;DHT22;60030;52.274;8.040;2023-02-28T08:53:24;3.80;99.90
71367;DHT22;60030;52.274;8.040;2023-02-28T08:56:00;3.90;99.90
71367;DHT22;60030;52.274;8.040;2023-02-28T08:58:27;4.00;99.90
71367;DHT22;60030;52.274;8.040;2023-02-28T09:00:55;4.10;99.90
71367;DHT22;60030;52.274;8.040;2023-02-28T09:03:22;4.20;99.90
71367;DHT22;60030;52.274;8.040;2023-02-28T09:05:54;4.10;99.90
71367;DHT22;60030;52.274;8.040;2023-02-28T09:08:22;4.00;99.90
71367;DHT22;60030;52.274;8.040;2023-02-28T09:10:50;4.10;99.90
71367;DHT22;60030;52.274;8.040;2023-02-28T09:13:19;4.40;99.90
71367;DHT22;60030;52.274;8.040;2023-02-28T09:15:46;4.40;99.90
71367;DHT22;60030;52.274;8.040;2023-02-28T09:18:13;4.50;99.90
71367;DHT22;60030;52.274;8.040;2023-02-28T09:20:41;4.40;99.90
71367;DHT22;60030;52.274;8.040;2023-02-28T09:23:09;4.50;99.90
71367;DHT22;60030;52.274;8.040;2023-02-28T09:25:37;4.70;99.90
71367;DHT22;60030;52.274;8.040;2023-02-28T09:28:05;4.70;99.90
71367;DHT22;60030;52.274;8.040;2023-02-28T09:30:34;4.70;99.90
71367;DHT22;60030;52.274;8.040;2023-02-28T09:33:01;4.90;99.90
71367;DHT22;60030;52.274;8.040;2023-02-28T09:35:28;5.00;99.90
71367;DHT22;60030;52.274;8.040;2023-02-28T09:37:56;5.00;99.90
71367;DHT22;60030;52.274;8.040;2023-02-28T09:40:25;5.10;99.90
71367;DHT22;60030;52.274;8.040;2023-02-28T09:42:54;5.10;99.90
71367;DHT22;60030;52.274;8.040;2023-02-28T09:45:24;5.10;99.90
71367;DHT22;60030;52.274;8.040;2023-02-28T09:47:58;5.20;98.90
71367;DHT22;60030;52.274;8.040;2023-02-28T09:50:30;5.20;99.00
71367;DHT22;60030;52.274;8.040;2023-02-28T09:52:59;5.30;97.50
71367;DHT22;60030;52.274;8.040;2023-02-28T09:55:31;5.30;94.80
71367;DHT22;60030;52.274;8.040;2023-02-28T09:58:00;5.50;95.10
71367;DHT22;60030;52.274;8.040;2023-02-28T10:00:32;5.40;93.90
71367;DHT22;60030;52.274;8.040;2023-02-28T10:03:30;5.60;94.30
71367;DHT22;60030;52.274;8.040;2023-02-28T10:06:06;5.60;91.80
71367;DHT22;60030;52.274;8.040;2023-02-28T10:08:37;5.70;88.80
71367;DHT22;60030;52.274;8.040;2023-02-28T10:11:09;5.70;84.90
71367;DHT22;60030;52.274;8.040;2023-02-28T10:13:52;5.80;86.50
71367;DHT22;60030;52.274;8.040;2023-02-28T10:16:25;5.90;87.10
71367;DHT22;60030;52.274;8.040;2023-02-28T10:19:01;6.00;87.80
71367;DHT22;60030;52.274;8.040;2023-02-28T10:21:34;5.90;86.10
71367;DHT22;60030;52.274;8.040;2023-02-28T10:24:05;6.10;84.00
71367;DHT22;60030;52.274;8.040;2023-02-28T10:26:37;6.20;81.90
71367;DHT22;60030;52.274;8.040;2023-02-28T10:29:04;6.30;82.30
71367;DHT22;60030;52.274;8.040;2023-02-28T10:31:31;6.30;81.20
71367;DHT22;60030;52.274;8.040;2023-02-28T10:34:00;6.50;82.00
71367;DHT22;60030;52.274;8.040;2023-02-28T10:36:29;6.50;79.90
71367;DHT22;60030;52.274;8.040;2023-02-28T10:38:59;6.60;79.80
71367;DHT22;60030;52.274;8.040;2023-02-28T10:41:28;6.70;78.70
71367;DHT22;60030;52.274;8.040;2023-02-28T10:44:14;6.80;78.10
71367;DHT22;60030;52.274;8.040;2023-02-28T10:46:42;6.70;75.50
71367;DHT22;60030;52.274;8.040;2023-02-28T10:49:17;6.60;74.90
71367;DHT22;60030;52.274;8.040;2023-02-28T10:51:45;6.60;75.60
71367;DHT22;60030;52.274;8.040;2023-02-28T10:54:16;6.90;75.70
71367;DHT22;60030;52.274;8.040;2023-02-28T10:56:44;6.90;74.90
71367;DHT22;60030;52.274;8.040;2023-02-28T10:59:30;7.20;74.90
71367;DHT22;60030;52.274;8.040;2023-02-28T11:01:57;7.20;71.70
71367;DHT22;60030;52.274;8.040;2023-02-28T11:04:37;7.30;72.40
71367;DHT22;60030;52.274;8.040;2023-02-28T11:07:13;7.30;70.90
71367;DHT22;60030;52.274;8.040;2023-02-28T11:09:46;7.40;71.50
71367;DHT22;60030;52.274;8.040;2023-02-28T11:12:21;7.60;70.20
71367;DHT22;60030;52.274;8.040;2023-02-28T11:14:52;7.70;73.30
71367;DHT22;60030;52.274;8.040;2023-02-28T11:17:21;7.70;71.50
71367;DHT22;60030;52.274;8.040;2023-02-28T11:19:52;7.80;72.80
71367;DHT22;60030;52.274;8.040;2023-02-28T11:22:23;7.90;71.10
71367;DHT22;60030;52.274;8.040;2023-02-28T11:24:55;7.80;68.80
71367;DHT22;60030;52.274;8.040;2023-02-28T11:27:44;8.00;70.20
71367;DHT22;60030;52.274;8.040;2023-02-28T11:30:27;7.70;67.30
71367;DHT22;60030;52.274;8.040;2023-02-28T11:32:55;7.70;68.10
71367;DHT22;60030;52.274;8.040;2023-02-28T11:35:28;8.10;69.90
71367;DHT22;60030;52.274;8.040;2023-02-28T11:37:57;8.40;69.20
71367;DHT22;60030;52.274;8.040;2023-02-28T11:40:30;8.40;69.70
71367;DHT22;60030;52.274;8.040;2023-02-28T11:43:12;8.30;68.60
71367;DHT22;60030;52.274;8.040;2023-02-28T11:45:49;8.40;68.60
71367;DHT22;60030;52.274;8.040;2023-02-28T11:48:28;8.00;68.20
71367;DHT22;60030;52.274;8.040;2023-02-28T11:51:10;8.40;69.30
71367;DHT22;60030;52.274;8.040;2023-02-28T11:54:01;8.50;68.50
71367;DHT22;60030;52.274;8.040;2023-02-28T11:56:36;8.70;67.90
71367;DHT22;60030;52.274;8.040;2023-02-28T11:59:29;8.90;69.50
71367;DHT22;60030;52.274;8.040;2023-02-28T12:02:19;9.40;68.20
71367;DHT22;60030;52.274;8.040;2023-02-28T12:04:55;8.70;65.90
71367;DHT22;60030;52.274;8.040;2023-02-28T12:07:33;8.60;68.00
71367;DHT22;60030;52.274;8.040;2023-02-28T12:10:12;9.00;67.60
71367;DHT22;60030;52.274;8.040;2023-02-28T12:12:48;8.70;66.90
71367;DHT22;60030;52.274;8.040;2023-02-28T12:15:46;9.20;67.30
71367;DHT22;60030;52.274;8.040;2023-02-28T12:21:20;10.00;65.10
71367;DHT22;60030;52.274;8.040;2023-02-28T12:24:10;9.60;64.10
71367;DHT22;60030;52.274;8.040;2023-02-28T12:26:45;10.10;63.90
71367;DHT22;60030;52.274;8.040;2023-02-28T12:29:19;9.90;63.60
71367;DHT22;60030;52.274;8.040;2023-02-28T12:31:49;10.30;62.20
71367;DHT22;60030;52.274;8.040;2023-02-28T12:34:21;10.40;61.90
71367;DHT22;60030;52.274;8.040;2023-02-28T12:36:52;10.20;62.10
71367;DHT22;60030;52.274;8.040;2023-02-28T12:39:26;9.90;59.70
71367;DHT22;60030;52.274;8.040;2023-02-28T12:41:59;10.00;62.00
71367;DHT22;60030;52.274;8.040;2023-02-28T12:44:32;10.50;62.90
71367;DHT22;60030;52.274;8.040;2023-02-28T12:47:03;10.80;59.80
71367;DHT22;60030;52.274;8.040;2023-02-28T12:49:33;10.60;58.80
71367;DHT22;60030;52.274;8.040;2023-02-28T12:52:02;10.90;59.30
71367;DHT22;60030;52.274;8.040;2023-02-28T12:54:38;11.20;58.40
71367;DHT22;60030;52.274;8.040;2023-02-28T12:57:11;11.40;58.10
71367;DHT22;60030;52.274;8.040;2023-02-28T12:59:41;11.40;59.10
71367;DHT22;60030;52.274;8.040;2023-02-28T13:08:48;12.10;57.70
71367;DHT22;60030;52.274;8.040;2023-02-28T13:11:29;12.40;57.50
71367;DHT22;60030;52.274;8.040;2023-02-28T13:13:59;12.50;57.50
71367;DHT22;60030;52.274;8.040;2023-02-28T13:16:27;12.50;56.60
71367;DHT22;60030;52.274;8.040;2023-02-28T13:19:08;12.30;56.90
71367;DHT22;60030;52.274;8.040;2023-02-28T13:21:43;12.10;57.50
71367;DHT22;60030;52.274;8.040;2023-02-28T13:24:11;12.70;57.00
71367;DHT22;60030;52.274;8.040;2023-02-28T13:27:37;12.40;56.50
71367;DHT22;60030;52.274;8.040;2023-02-28T13:33:28;12.60;57.00
71367;DHT22;60030;52.274;8.040;2023-02-28T13:36:26;13.00;56.70
71367;DHT22;60030;52.274;8.040;2023-02-28T13:38:56;13.30;56.00
71367;DHT22;60030;52.274;8.040;2023-02-28T13:41:46;14.60;54.10
71367;DHT22;60030;52.274;8.040;2023-02-28T13:44:17;15.60;51.80
71367;DHT22;60030;52.274;8.040;2023-02-28T13:47:19;16.80;49.40
71367;DHT22;60030;52.274;8.040;2023-02-28T13:49:47;17.60;47.40
71367;DHT22;60030;52.274;8.040;2023-02-28T13:52:20;18.40;45.40
71367;DHT22;60030;52.274;8.040;2023-02-28T13:55:19;18.70;44.70
71367;DHT22;60030;52.274;8.040;2023-02-28T13:58:09;18.10;43.50
71367;DHT22;60030;52.274;8.040;2023-02-28T14:00:56;18.40;43.80
71367;DHT22;60030;52.274;8.040;2023-02-28T14:03:36;19.30;42.00
71367;DHT22;60030;52.274;8.040;2023-02-28T14:06:16;18.50;42.30
71367;DHT22;60030;52.274;8.040;2023-02-28T14:08:55;18.80;41.30
71367;DHT22;60030;52.274;8.040;2023-02-28T14:11:27;19.00;41.90
71367;DHT22;60030;52.274;8.040;2023-02-28T14:13:55;18.20;41.80
71367;DHT22;60030;52.274;8.040;2023-02-28T14:16:26;19.30;41.70
71367;DHT22;60030;52.274;8.040;2023-02-28T14:18:58;20.20;41.00
71367;DHT22;60030;52.274;8.040;2023-02-28T14:21:29;19.70;40.30
71367;DHT22;60030;52.274;8.040;2023-02-28T14:27:11;20.20;39.80
71367;DHT22;60030;52.274;8.040;2023-02-28T14:30:11;18.20;39.00
71367;DHT22;60030;52.274;8.040;2023-02-28T14:32:47;17.70;42.30
71367;DHT22;60030;52.274;8.040;2023-02-28T14:35:27;16.60;43.40
71367;DHT22;60030;52.274;8.040;2023-02-28T14:37:56;15.70;45.20
71367;DHT22;60030;52.274;8.040;2023-02-28T14:40:27;15.20;45.90
71367;DHT22;60030;52.274;8.040;2023-02-28T14:42:56;15.10;46.60
71367;DHT22;60030;52.274;8.040;2023-02-28T14:45:27;14.40;47.30
71367;DHT22;60030;52.274;8.040;2023-02-28T14:47:58;13.70;47.80
71367;DHT22;60030;52.274;8.040;2023-02-28T14:50:29;12.40;51.30
71367;DHT22;60030;52.274;8.040;2023-02-28T14:52:57;14.30;49.80
71367;DHT22;60030;52.274;8.040;2023-02-28T14:55:28;14.60;47.90
71367;DHT22;60030;52.274;8.040;2023-02-28T14:57:57;13.90;47.20
71367;DHT22;60030;52.274;8.040;2023-02-28T15:00:26;13.20;49.00
71367;DHT22;60030;52.274;8.040;2023-02-28T15:02:55;13.10;49.70
71367;DHT22;60030;52.274;8.040;2023-02-28T15:05:27;13.00;50.00
71367;DHT22;60030;52.274;8.040;2023-02-28T15:08:05;13.70;49.80
71367;DHT22;60030;52.274;8.040;2023-02-28T15:10:33;14.50;48.20
71367;DHT22;60030;52.274;8.040;2023-02-28T15:13:04;15.00;47.40
71367;DHT22;60030;52.274;8.040;2023-02-28T15:15:40;14.80;47.70
71367;DHT22;60030;52.274;8.040;2023-02-28T15:18:16;15.00;48.10
71367;DHT22;60030;52.274;8.040;2023-02-28T15:20:51;14.80;47.70
71367;DHT22;60030;52.274;8.040;2023-02-28T15:23:19;14.90;47.40
71367;DHT22;60030;52.274;8.040;2023-02-28T15:25:48;14.40;48.60
71367;DHT22;60030;52.274;8.040;2023-02-28T15:28:18;14.30;48.50
71367;DHT22;60030;52.274;8.040;2023-02-28T15:30:55;12.90;50.20
71367;DHT22;60030;52.274;8.040;2023-02-28T15:33:24;12.80;51.30
71367;DHT22;60030;52.274;8.040;2023-02-28T15:36:04;13.40;50.90
71367;DHT22;60030;52.274;8.040;2023-02-28T15:38:34;12.80;50.80
71367;DHT22;60030;52.274;8.040;2023-02-28T15:41:02;12.40;52.10
71367;DHT22;60030;52.274;8.040;2023-02-28T15:43:35;12.80;51.90
71367;DHT22;60030;52.274;8.040;2023-02-28T15:46:04;12.70;52.20
71367;DHT22;60030;52.274;8.040;2023-02-28T15:48:34;12.60;52.00
71367;DHT22;60030;52.274;8.040;2023-02-28T15:51:06;12.40;52.40
71367;DHT22;60030;52.274;8.040;2023-02-28T15:53:37;11.90;52.80
71367;DHT22;60030;52.274;8.040;2023-02-28T15:56:06;11.50;54.10
71367;DHT22;60030;52.274;8.040;2023-02-28T15:58:35;11.50;54.60
71367;DHT22;60030;52.274;8.040;2023-02-28T16:01:16;11.30;54.70
71367;DHT22;60030;52.274;8.040;2023-02-28T16:03:46;10.80;56.10
71367;DHT22;60030;52.274;8.040;2023-02-28T16:06:34;10.80;56.10
71367;DHT22;60030;52.274;8.040;2023-02-28T16:09:03;10.60;56.60
71367;DHT22;60030;52.274;8.040;2023-02-28T16:11:33;10.20;56.90
71367;DHT22;60030;52.274;8.040;2023-02-28T16:14:00;10.30;57.00
71367;DHT22;60030;52.274;8.040;2023-02-28T16:16:28;10.40;57.30
71367;DHT22;60030;52.274;8.040;2023-02-28T16:18:57;10.30;57.90
71367;DHT22;60030;52.274;8.040;2023-02-28T16:21:25;10.20;58.40
71367;DHT22;60030;52.274;8.040;2023-02-28T16:23:53;10.20;58.50
71367;DHT22;60030;52.274;8.040;2023-02-28T16:26:23;10.30;58.40
71367;DHT22;60030;52.274;8.040;2023-02-28T16:28:52;10.10;58.70
71367;DHT22;60030;52.274;8.040;2023-02-28T16:31:19;9.70;60.10